CheckWX is a tool to help pilots better visualize weather data.  It is not intended as a substitute for an official pre-flight weather briefing.

06:31:16 UTC

KHDO METAR
South Texas Regional at Hondo Airport
Hondo, Texas, USA
Current

40 mins ago

KHDO 190551Z AUTO 10006KT 10SM SCT095 29/19 A2988 RMK AO2 SLP099 T02890189 10367 20289 404000206 51010
Observed
Sep-19 @ 05:51 UTC
Wind
  • 100° at 6 KTS
Visibility
10 SM
Flight Rules
VFR
Cloud Levels
  • Scattered at 9,500' AGL
Temperature
29°C / 84°F
Dewpoint
19°C / 66°F
Heat Index
30°C / 86°F
Humidity
55%
Altimeter
29.88" Hg
Pressure
1011.82 hPa
Previous

2 hours ago

KHDO 190451Z AUTO 08007KT 10SM CLR 29/18 A2988 RMK AO2 SLP098 T02890178
Observed
Sep-19 @ 04:51 UTC
Wind
  • 080° at 7 KTS
Visibility
10 SM
Flight Rules
VFR
Cloud Levels
  • Clear skies
Temperature
29°C / 84°F
Dewpoint
18°C / 64°F
Heat Index
29°C / 85°F
Humidity
51%
Altimeter
29.88" Hg
Pressure
1011.82 hPa
Previous

3 hours ago

KHDO 190351Z AUTO 12006KT 10SM CLR 31/18 A2986 RMK AO2 SLP095 T03110178
Observed
Sep-19 @ 03:51 UTC
Wind
  • 120° at 6 KTS
Visibility
10 SM
Flight Rules
VFR
Cloud Levels
  • Clear skies
Temperature
31°C / 88°F
Dewpoint
18°C / 64°F
Heat Index
32°C / 90°F
Humidity
46%
Altimeter
29.86" Hg
Pressure
1011.22 hPa